FranceFixed distance
Trail du Mont D'Or
16 Jun2024
Distance
53km
Finishers
205175 men30 women
Winning time
5:02:44h
Median pace
6.78km/h
Pace distribution
205 finishers · 5.34–10.50 km/h · mean 6.97
Every finisher ran the same 53 km course, so these paces are directly comparable.
Histogram of finisher pace. 205 finishers ranged from 5.34 to 10.50 kilometres per hour, with a mean of 6.97 and a median of 6.78. The busiest band is 6.5 to 7.0 kilometres per hour, with 51 finishers.
Results
Ranks 1–50 of 205
| Rank | Runner | Time | Pace | Cat. | Placing |
|---|---|---|---|---|---|
| 1 | Ferrieres Sport Athle | 5:02:44h | 10.50 | M23 | 1st M · 1st M23 |
| 2 | 5:04:45h | 10.44 | M23 | 2nd M · 2nd M23 | |
| 3 | 5:13:47h | 10.13 | M23 | 3rd M · 3rd M23 | |
| 4 | OM Athletisme | 5:18:31h | 9.98 | M23 | 4th M · 4th M23 |
| 5 | 5:28:05h | 9.69 | M23 | 5th M · 5th M23 | |
| 6 | les Costhauts | 5:40:37h | 9.34 | MU23 | 6th M · 1st MU23 |
| 7 | 5:41:17h | 9.32 | M23 | 7th M · 6th M23 | |
| 8 | Sports Nature / DSA | 5:43:06h | 9.27 | M45 | 8th M · 1st M45 |
| 9 | Team Trail la Gaudine | 5:44:53h | 9.22 | M55 | 9th M · 1st M55 |
| 10 | 5:48:40h | 9.12 | M23 | 10th M · 7th M23 | |
| 11 | Chazot VTT | 5:49:49h | 9.09 | M23 | 11th M · 8th M23 |
| 12 | Avon Athletisme | 5:50:26h | 9.07 | M35 | 12th M · 1st M35 |
| 13 | Belfort Athle | 5:51:58h | 9.04 | M35 | 13th M · 2nd M35 |
| 14 | Eedwesb | 5:55:55h | 8.94 | M23 | 14th M · 9th M23 |
| 15 | 5:57:06h | 8.90 | M23 | 15th M · 10th M23 | |
| 16 | 5:59:41h | 8.84 | M23 | 16th M · 11th M23 | |
| 17 | les Courts Bouillon | 5:59:58h | 8.83 | M40 | 17th M · 1st M40 |
| 18 | 6:01:52h | 8.79 | M23 | 18th M · 12th M23 | |
| 19 | Besancon Plus Belle Vi... | 6:03:54h | 8.74 | M23 | 19th M · 13th M23 |
| 20 | AC Chatenois | 6:10:14h | 8.59 | M40 | 20th M · 2nd M40 |
| 21 | Pays de Maiche Trail | 6:10:28h | 8.58 | M50 | 21st M · 1st M50 |
| 22 | 6:11:37h | 8.56 | M23 | 22nd M · 14th M23 | |
| 23 | 6:11:54h | 8.55 | M35 | 23rd M · 3rd M35 | |
| 24 | SKI Club de Frasne Dru... | 6:15:12h | 8.47 | M40 | 24th M · 3rd M40 |
| 25 | Team Grand Vallier | 6:16:06h | 8.46 | M40 | 25th M · 4th M40 |
| 26 | CN Pontarlier Triathlon | 6:18:57h | 8.39 | M35 | 26th M · 4th M35 |
| 27 | 6:21:02h | 8.35 | M23 | 27th M · 15th M23 | |
| 28 | 6:24:19h | 8.27 | M35 | 28th M · 5th M35 | |
| 29 | ALS Montlouis | 6:25:18h | 8.25 | M45 | 29th M · 2nd M45 |
| 30 | 6:36:37h | 8.02 | M23 | 30th M · 16th M23 | |
| 31 | 6:36:53h | 8.01 | MU23 | 31st M · 2nd MU23 | |
| 32 | UA Versailles | 6:36:55h | 8.01 | M23 | 32nd M · 17th M23 |
| 33 | les Detrailles | 6:39:40h | 7.96 | W23 | 1st F · 1st W23 |
| 34 | 6:41:00h | 7.93 | M23 | 33rd M · 18th M23 | |
| 35 | 6:41:49h | 7.91 | M23 | 34th M · 19th M23 | |
| 36 | 6:42:25h | 7.90 | M35 | 35th M · 6th M35 | |
| 37 | DSA Morteau | 6:42:31h | 7.90 | M23 | 36th M · 20th M23 |
| 38 | 6:44:36h | 7.86 | M40 | 37th M · 5th M40 | |
| 39 | 6:46:39h | 7.82 | M23 | 38th M · 21st M23 | |
| 40 | 6:46:52h | 7.82 | W35 | 2nd F · 1st W35 | |
| 41 | 6:48:22h | 7.79 | M40 | 39th M · 6th M40 | |
| 42 | Avon AC | 6:48:23h | 7.79 | M40 | 40th M · 7th M40 |
| 43 | 6:50:52h | 7.74 | M35 | 41st M · 7th M35 | |
| 44 | HR Training | 6:52:55h | 7.70 | M35 | 42nd M · 8th M35 |
| 45 | 6:54:14h | 7.68 | M35 | 43rd M · 9th M35 | |
| 46 | 6:56:21h | 7.64 | M23 | 44th M · 22nd M23 | |
| 47 | 6:56:32h | 7.63 | M50 | 45th M · 2nd M50 | |
| 48 | 6:56:33h | 7.63 | M23 | 46th M · 23rd M23 | |
| 49 | AC Chatenois | 6:56:44h | 7.63 | W35 | 3rd F · 2nd W35 |
| 50 | Astb | 6:57:22h | 7.62 | M40 | 47th M · 8th M40 |
- 1Ferrieres Sport Athle1st M · 1st M23Time5:02:44hPace10.50Cat.M23
- 22nd M · 2nd M23Time5:04:45hPace10.44Cat.M23
- 33rd M · 3rd M23Time5:13:47hPace10.13Cat.M23
- 4OM Athletisme4th M · 4th M23Time5:18:31hPace9.98Cat.M23
- 55th M · 5th M23Time5:28:05hPace9.69Cat.M23
- 6les Costhauts6th M · 1st MU23Time5:40:37hPace9.34Cat.MU23
- 77th M · 6th M23Time5:41:17hPace9.32Cat.M23
- 8Sports Nature / DSA8th M · 1st M45Time5:43:06hPace9.27Cat.M45
- 9Team Trail la Gaudine9th M · 1st M55Time5:44:53hPace9.22Cat.M55
- 1010th M · 7th M23Time5:48:40hPace9.12Cat.M23
- 11Chazot VTT11th M · 8th M23Time5:49:49hPace9.09Cat.M23
- 12Avon Athletisme12th M · 1st M35Time5:50:26hPace9.07Cat.M35
- 13Belfort Athle13th M · 2nd M35Time5:51:58hPace9.04Cat.M35
- 14Eedwesb14th M · 9th M23Time5:55:55hPace8.94Cat.M23
- 1515th M · 10th M23Time5:57:06hPace8.90Cat.M23
- 1616th M · 11th M23Time5:59:41hPace8.84Cat.M23
- 17les Courts Bouillon17th M · 1st M40Time5:59:58hPace8.83Cat.M40
- 1818th M · 12th M23Time6:01:52hPace8.79Cat.M23
- 19Besancon Plus Belle Vi...19th M · 13th M23Time6:03:54hPace8.74Cat.M23
- 20AC Chatenois20th M · 2nd M40Time6:10:14hPace8.59Cat.M40
- 21Pays de Maiche Trail21st M · 1st M50Time6:10:28hPace8.58Cat.M50
- 2222nd M · 14th M23Time6:11:37hPace8.56Cat.M23
- 2323rd M · 3rd M35Time6:11:54hPace8.55Cat.M35
- 24SKI Club de Frasne Dru...24th M · 3rd M40Time6:15:12hPace8.47Cat.M40
- 25Team Grand Vallier25th M · 4th M40Time6:16:06hPace8.46Cat.M40
- 26CN Pontarlier Triathlon26th M · 4th M35Time6:18:57hPace8.39Cat.M35
- 2727th M · 15th M23Time6:21:02hPace8.35Cat.M23
- 2828th M · 5th M35Time6:24:19hPace8.27Cat.M35
- 29ALS Montlouis29th M · 2nd M45Time6:25:18hPace8.25Cat.M45
- 3030th M · 16th M23Time6:36:37hPace8.02Cat.M23
- 3131st M · 2nd MU23Time6:36:53hPace8.01Cat.MU23
- 32UA Versailles32nd M · 17th M23Time6:36:55hPace8.01Cat.M23
- 33les Detrailles1st F · 1st W23Time6:39:40hPace7.96Cat.W23
- 3433rd M · 18th M23Time6:41:00hPace7.93Cat.M23
- 3534th M · 19th M23Time6:41:49hPace7.91Cat.M23
- 3635th M · 6th M35Time6:42:25hPace7.90Cat.M35
- 37DSA Morteau36th M · 20th M23Time6:42:31hPace7.90Cat.M23
- 3837th M · 5th M40Time6:44:36hPace7.86Cat.M40
- 3938th M · 21st M23Time6:46:39hPace7.82Cat.M23
- 402nd F · 1st W35Time6:46:52hPace7.82Cat.W35
- 4139th M · 6th M40Time6:48:22hPace7.79Cat.M40
- 42Avon AC40th M · 7th M40Time6:48:23hPace7.79Cat.M40
- 4341st M · 7th M35Time6:50:52hPace7.74Cat.M35
- 44HR Training42nd M · 8th M35Time6:52:55hPace7.70Cat.M35
- 4543rd M · 9th M35Time6:54:14hPace7.68Cat.M35
- 4644th M · 22nd M23Time6:56:21hPace7.64Cat.M23
- 4745th M · 2nd M50Time6:56:32hPace7.63Cat.M50
- 4846th M · 23rd M23Time6:56:33hPace7.63Cat.M23
- 49AC Chatenois3rd F · 2nd W35Time6:56:44hPace7.63Cat.W35
- 50Astb47th M · 8th M40Time6:57:22hPace7.62Cat.M40
Showing ranks 1–50 of 205